Terminal Aerodrome Forecast
Issued by NWS Sterling, VA

Current Version | Previous Version | Text Only | Print | Product List | Glossary Off
Versions: 1 2 3 4 5 6 7 8 9 10 11 12 13 14 15 16 17 18 19 20 21 22

944
FTUS41 KLWX 202049 AAA
TAFDCA
TAF AMD
KDCA 202049Z 2021/2118 21012KT P6SM SCT080 BKN100
     FM210200 21007KT P6SM BKN070
     FM210400 22006KT P6SM SCT070
     FM210800 25004KT P6SM BKN080
     FM211100 28004KT P6SM SCT200=

USA.gov is the U.S. government's official web portal to all federal, state and local government web resources and services.